createdAt,value
2018-09-05T00:02:15.447Z,37.10
2018-09-05T00:04:43.064Z,33.60
2018-09-05T00:07:10.925Z,28.63
2018-09-05T00:09:38.650Z,36.30
2018-09-05T00:12:06.325Z,30.80
2018-09-05T00:14:33.983Z,33.30
2018-09-05T00:17:01.749Z,34.77
2018-09-05T00:19:29.350Z,41.90
2018-09-05T00:21:56.958Z,37.73
2018-09-05T00:24:24.582Z,39.50
2018-09-05T00:26:52.271Z,35.47
2018-09-05T00:29:19.872Z,38.27
2018-09-05T00:31:47.461Z,38.93
2018-09-05T00:34:15.129Z,38.17
2018-09-05T00:36:42.759Z,43.80
2018-09-05T00:39:10.421Z,50.97
2018-09-05T00:41:38.064Z,50.57
2018-09-05T00:44:05.925Z,47.03
2018-09-05T00:46:33.648Z,39.63
2018-09-05T00:49:01.719Z,37.00
2018-09-05T00:51:29.317Z,34.33
2018-09-05T00:53:56.999Z,37.93
2018-09-05T00:56:24.632Z,42.77
2018-09-05T00:58:54.371Z,50.37
2018-09-05T01:01:22.041Z,52.00
2018-09-05T01:03:49.711Z,53.13
2018-09-05T01:06:17.317Z,51.77
2018-09-05T01:08:45.029Z,55.73
2018-09-05T01:11:12.647Z,60.23
2018-09-05T01:13:40.509Z,63.03
2018-09-05T01:16:08.365Z,51.63
2018-09-05T01:18:35.954Z,51.00
2018-09-05T01:21:03.621Z,43.67
2018-09-05T01:23:31.233Z,43.07
2018-09-05T01:25:58.854Z,46.63
2018-09-05T01:28:26.614Z,61.97
2018-09-05T01:30:54.322Z,60.00
2018-09-05T01:33:21.928Z,45.70
2018-09-05T01:35:54.197Z,47.00
2018-09-05T01:38:21.826Z,46.10
2018-09-05T01:40:50.929Z,44.67
2018-09-05T01:43:24.665Z,43.53
2018-09-05T01:45:52.447Z,47.70
2018-09-05T01:48:20.156Z,46.07
2018-09-05T01:50:47.850Z,42.20
2018-09-05T01:53:15.534Z,40.33
2018-09-05T01:55:43.197Z,42.27
2018-09-05T01:58:10.942Z,50.00
2018-09-05T02:00:38.768Z,47.60
2018-09-05T02:03:06.442Z,45.37
2018-09-05T02:05:34.232Z,44.83
2018-09-05T02:08:02.504Z,46.80
2018-09-05T02:10:30.966Z,43.63
2018-09-05T02:12:59.097Z,44.33
2018-09-05T02:15:26.782Z,41.47
2018-09-05T02:17:54.502Z,47.23
2018-09-05T02:20:22.417Z,50.07
2018-09-05T02:22:50.715Z,45.87
2018-09-05T02:25:18.491Z,49.47
2018-09-05T02:27:46.581Z,49.30
2018-09-05T02:30:14.276Z,46.60
2018-09-05T02:32:42.042Z,49.53
2018-09-05T02:35:09.781Z,39.97
2018-09-05T02:37:37.531Z,41.87
2018-09-05T02:40:05.967Z,47.87
2018-09-05T02:42:33.686Z,47.57
2018-09-05T02:45:01.494Z,54.87
2018-09-05T02:47:29.147Z,44.70
2018-09-05T02:49:56.871Z,47.43
2018-09-05T02:52:24.614Z,47.67
2018-09-05T02:54:52.354Z,47.60
2018-09-05T02:57:19.990Z,41.90
2018-09-05T02:59:47.688Z,48.30
2018-09-05T03:02:15.773Z,43.27
2018-09-05T03:04:43.437Z,45.80
2018-09-05T03:07:11.117Z,44.57
2018-09-05T03:09:38.864Z,41.60
2018-09-05T03:12:06.838Z,42.13
2018-09-05T03:14:34.505Z,50.10
2018-09-05T03:17:02.363Z,54.47
2018-09-05T03:19:30.139Z,58.77
2018-09-05T03:21:57.825Z,54.67
2018-09-05T03:24:25.491Z,38.90
2018-09-05T03:26:53.209Z,46.47
2018-09-05T03:29:20.942Z,48.00
2018-09-05T03:31:48.590Z,49.03
2018-09-05T03:34:16.262Z,44.43
2018-09-05T03:36:43.966Z,52.87
2018-09-05T03:39:12.030Z,44.00
2018-09-05T03:41:40.120Z,44.23
2018-09-05T03:44:08.045Z,55.77
2018-09-05T03:46:35.705Z,40.87
2018-09-05T03:49:04.776Z,37.00
2018-09-05T03:51:32.534Z,43.77
2018-09-05T03:54:00.270Z,38.20
2018-09-05T03:56:27.982Z,43.77
2018-09-05T03:58:55.706Z,43.77
2018-09-05T04:01:23.414Z,46.17
2018-09-05T04:03:51.397Z,42.03
2018-09-05T04:06:20.643Z,40.67
2018-09-05T04:08:49.434Z,43.53
2018-09-05T04:11:17.197Z,40.53
2018-09-05T04:13:44.941Z,44.10
2018-09-05T04:16:12.845Z,42.43
2018-09-05T04:18:40.543Z,47.10
2018-09-05T04:21:08.285Z,52.30
2018-09-05T04:23:39.884Z,51.30
2018-09-05T04:26:07.610Z,47.60
2018-09-05T04:28:35.279Z,48.97
2018-09-05T04:31:03.088Z,45.50
2018-09-05T04:33:30.772Z,47.33
2018-09-05T04:35:58.570Z,51.70
2018-09-05T04:38:26.322Z,47.47
2018-09-05T04:40:53.998Z,44.13
2018-09-05T04:43:21.969Z,44.70
2018-09-05T04:45:49.757Z,53.03
2018-09-05T04:48:17.438Z,53.30
2018-09-05T04:50:45.377Z,52.73
2018-09-05T04:53:13.081Z,46.97
2018-09-05T04:55:40.729Z,46.33
2018-09-05T04:58:08.459Z,55.43
2018-09-05T05:00:36.138Z,53.47
2018-09-05T05:03:03.873Z,42.80
2018-09-05T05:05:31.611Z,45.90
2018-09-05T05:07:59.342Z,61.03
2018-09-05T05:10:27.002Z,69.13
2018-09-05T05:12:54.664Z,64.83
2018-09-05T05:15:22.354Z,59.73
2018-09-05T05:17:50.018Z,64.93
2018-09-05T05:20:17.831Z,70.20
2018-09-05T05:22:45.574Z,58.00
2018-09-05T05:25:13.238Z,62.00
2018-09-05T05:27:40.996Z,58.83
2018-09-05T05:30:08.750Z,61.80
2018-09-05T05:32:36.551Z,56.03
2018-09-05T05:35:04.142Z,54.87
2018-09-05T05:37:31.891Z,46.07
2018-09-05T05:40:04.196Z,56.00
2018-09-05T05:42:32.232Z,39.80
2018-09-05T05:45:00.378Z,44.03
2018-09-05T05:47:28.170Z,43.00
2018-09-05T05:49:55.886Z,33.23
2018-09-05T05:52:23.545Z,31.07
2018-09-05T05:54:51.287Z,32.83
2018-09-05T05:57:19.054Z,30.43
2018-09-05T05:59:46.694Z,30.13
2018-09-05T06:02:14.488Z,31.23
2018-09-05T06:04:42.302Z,28.93
2018-09-05T06:07:10.009Z,31.30
2018-09-05T06:09:38.066Z,31.93
2018-09-05T06:12:06.155Z,25.30
2018-09-05T06:14:33.890Z,30.07
2018-09-05T06:17:01.607Z,23.73
2018-09-05T06:19:29.226Z,25.50
2018-09-05T06:21:57.107Z,27.83
2018-09-05T06:24:25.246Z,27.30
2018-09-05T06:26:52.941Z,26.47
2018-09-05T06:29:20.680Z,31.90
2018-09-05T06:31:48.649Z,27.23
2018-09-05T06:34:16.612Z,26.00
2018-09-05T06:36:44.401Z,28.17
2018-09-05T06:39:12.395Z,31.53
2018-09-05T06:41:39.945Z,26.27
2018-09-05T06:44:07.941Z,31.17
2018-09-05T06:46:35.606Z,28.93
2018-09-05T06:49:03.406Z,30.20
2018-09-05T06:51:31.091Z,29.70
2018-09-05T06:53:58.742Z,29.03
2018-09-05T06:56:26.394Z,26.17
2018-09-05T06:58:54.233Z,31.07
2018-09-05T07:01:21.938Z,29.07
2018-09-05T07:03:50.013Z,27.03
2018-09-05T07:06:17.681Z,31.13
2018-09-05T07:08:45.557Z,37.43
2018-09-05T07:11:13.252Z,29.33
2018-09-05T07:13:40.910Z,32.03
2018-09-05T07:16:08.805Z,38.27
2018-09-05T07:18:36.565Z,32.77
2018-09-05T07:21:07.113Z,35.00
2018-09-05T07:23:35.526Z,30.93
2018-09-05T07:26:03.237Z,32.33
2018-09-05T07:28:31.009Z,33.80
2018-09-05T07:30:58.870Z,31.07
2018-09-05T07:33:26.430Z,29.30
2018-09-05T07:35:54.366Z,30.33
2018-09-05T07:38:22.066Z,26.77
2018-09-05T07:40:49.829Z,25.43
2018-09-05T07:43:17.748Z,29.37
2018-09-05T07:45:45.386Z,25.23
2018-09-05T07:48:13.325Z,24.53
2018-09-05T07:50:41.061Z,25.07
2018-09-05T07:53:08.734Z,25.13
2018-09-05T07:55:36.390Z,24.43
2018-09-05T07:58:04.729Z,24.80
2018-09-05T08:00:32.466Z,23.63
2018-09-05T08:03:00.348Z,22.93
2018-09-05T08:05:28.006Z,23.03
2018-09-05T08:07:55.694Z,21.17
2018-09-05T08:10:23.369Z,20.50
2018-09-05T08:12:51.046Z,20.83
2018-09-05T08:15:18.796Z,23.20
2018-09-05T08:17:46.518Z,25.97
2018-09-05T08:20:14.367Z,22.57
2018-09-05T08:22:42.338Z,21.23
2018-09-05T08:25:10.009Z,22.77
2018-09-05T08:27:37.649Z,19.60
2018-09-05T08:30:05.479Z,19.87
2018-09-05T08:32:33.111Z,18.87
2018-09-05T08:35:00.926Z,20.27
2018-09-05T08:37:28.707Z,18.60
2018-09-05T08:39:56.142Z,20.73
2018-09-05T08:42:23.994Z,20.97
2018-09-05T08:44:51.847Z,19.77
2018-09-05T08:47:19.300Z,19.00
2018-09-05T08:49:46.919Z,19.17
2018-09-05T08:52:14.633Z,20.07
2018-09-05T08:54:42.302Z,18.43
2018-09-05T08:57:09.954Z,19.27
2018-09-05T08:59:37.764Z,18.20
2018-09-05T09:02:05.523Z,17.97
2018-09-05T09:04:33.422Z,17.87
2018-09-05T09:07:01.086Z,18.03
2018-09-05T09:09:28.749Z,17.20
2018-09-05T09:11:56.447Z,15.53
2018-09-05T09:14:24.133Z,16.40
2018-09-05T09:16:51.879Z,15.20
2018-09-05T09:19:19.626Z,17.82
2018-09-05T09:21:47.324Z,17.65
2018-09-05T09:24:15.013Z,19.60
2018-09-05T09:26:42.846Z,19.25
2018-09-05T09:29:10.529Z,18.02
2018-09-05T09:31:38.193Z,19.35
2018-09-05T09:34:05.933Z,19.07
2018-09-05T09:36:33.642Z,19.10
2018-09-05T09:39:01.473Z,18.85
2018-09-05T09:41:29.165Z,19.63
2018-09-05T09:43:56.861Z,17.97
2018-09-05T09:46:24.594Z,18.43
2018-09-05T09:48:52.335Z,19.23
2018-09-05T09:51:22.293Z,20.00
2018-09-05T09:53:50.862Z,19.60
2018-09-05T09:56:19.672Z,19.43
2018-09-05T09:58:47.402Z,18.10
2018-09-05T10:01:20.887Z,17.73
2018-09-05T10:03:54.372Z,17.90
2018-09-05T10:06:27.902Z,17.87
2018-09-05T10:09:01.374Z,17.42
2018-09-05T10:11:34.814Z,18.30
2018-09-05T10:14:08.478Z,18.00
2018-09-05T10:16:39.688Z,15.93
2018-09-05T10:19:08.210Z,18.15
2018-09-05T10:21:35.929Z,18.48
2018-09-05T10:24:03.598Z,16.73
2018-09-05T10:26:31.246Z,18.45
2018-09-05T10:28:58.877Z,17.67
2018-09-05T10:31:26.538Z,17.20
2018-09-05T10:33:54.242Z,16.70
2018-09-05T10:36:21.905Z,16.62
2018-09-05T10:38:49.590Z,17.62
2018-09-05T10:41:17.314Z,19.62
2018-09-05T10:43:45.094Z,17.42
2018-09-05T10:46:13.000Z,17.40
2018-09-05T10:48:47.498Z,17.37
2018-09-05T10:51:16.570Z,16.40
2018-09-05T10:53:44.352Z,16.95
2018-09-05T10:56:12.062Z,16.07
2018-09-05T10:58:39.748Z,17.77
2018-09-05T11:01:07.352Z,17.37
2018-09-05T11:03:35.025Z,19.40
2018-09-05T11:06:02.769Z,17.33
2018-09-05T11:08:30.455Z,18.17
2018-09-05T11:10:58.259Z,18.73
2018-09-05T11:13:25.854Z,18.13
2018-09-05T11:15:53.561Z,18.93
2018-09-05T11:18:21.834Z,19.70
2018-09-05T11:20:49.676Z,19.43
2018-09-05T11:23:17.525Z,18.87
2018-09-05T11:25:45.265Z,18.23
2018-09-05T11:28:13.082Z,18.53
2018-09-05T11:30:40.899Z,17.90
2018-09-05T11:33:08.575Z,17.83
2018-09-05T11:35:36.268Z,18.07
2018-09-05T11:38:03.950Z,18.60
2018-09-05T11:40:31.692Z,18.40
2018-09-05T11:42:59.363Z,17.30
2018-09-05T11:45:27.057Z,17.57
2018-09-05T11:47:54.769Z,17.27
2018-09-05T11:50:22.554Z,16.20
2018-09-05T11:52:50.237Z,16.97
2018-09-05T11:55:18.041Z,17.20
2018-09-05T11:57:45.937Z,17.20
2018-09-05T12:00:13.913Z,16.37
2018-09-05T12:02:49.355Z,17.73
2018-09-05T12:05:23.734Z,17.73
2018-09-05T12:07:52.287Z,17.03
2018-09-05T12:10:20.906Z,16.63
2018-09-05T12:12:49.876Z,16.93
2018-09-05T12:15:18.731Z,16.20
2018-09-05T12:17:47.552Z,16.57
2018-09-05T12:20:44.212Z,17.40
2018-09-05T12:23:13.962Z,16.63
2018-09-05T12:25:46.101Z,17.10
2018-09-05T12:47:03.710Z,17.80
2018-09-05T12:49:35.647Z,18.17
2018-09-05T12:52:29.053Z,20.87
2018-09-05T12:55:05.756Z,17.23
2018-09-05T12:57:33.900Z,17.13
2018-09-05T13:00:02.230Z,16.67
2018-09-05T13:02:30.513Z,16.50
2018-09-05T13:05:12.146Z,16.80
2018-09-05T13:07:45.109Z,16.10
2018-09-05T13:10:13.381Z,16.80
2018-09-05T13:12:46.392Z,17.27
2018-09-05T13:15:14.620Z,18.47
2018-09-05T13:17:47.609Z,16.77
2018-09-05T13:20:15.777Z,16.67
2018-09-05T13:26:10.666Z,15.70
2018-09-05T13:28:39.148Z,17.20
2018-09-05T13:33:40.442Z,16.20
2018-09-05T13:36:08.692Z,17.30
2018-09-05T13:38:37.209Z,16.50
2018-09-05T13:41:05.316Z,16.97
2018-09-05T13:43:33.968Z,16.73
2018-09-05T13:46:04.332Z,16.47
2018-09-05T13:48:32.572Z,16.90
2018-09-05T13:51:03.020Z,16.37
2018-09-05T13:53:31.281Z,16.83
2018-09-05T13:56:04.443Z,16.93
2018-09-05T13:58:32.868Z,17.07
2018-09-05T14:01:06.814Z,18.47
2018-09-05T14:03:34.898Z,18.07
2018-09-05T14:06:07.721Z,16.37
2018-09-05T14:08:35.781Z,16.37
2018-09-05T14:13:42.421Z,16.60
2018-09-05T14:16:11.446Z,15.57
2018-09-05T14:18:39.524Z,14.80
2018-09-05T14:21:12.968Z,14.33
2018-09-05T14:23:41.246Z,15.37
2018-09-05T14:28:42.267Z,17.90
2018-09-05T14:31:10.339Z,14.60
2018-09-05T14:33:39.493Z,14.73
2018-09-05T14:36:09.703Z,14.23
2018-09-05T14:38:41.442Z,15.27
2018-09-05T14:41:09.456Z,14.03
2018-09-05T14:43:42.469Z,15.07
2018-09-05T14:46:10.697Z,15.47
2018-09-05T14:48:38.794Z,15.20
2018-09-05T14:51:06.928Z,15.83
2018-09-05T14:53:35.240Z,14.93
2018-09-05T14:56:03.288Z,16.03
2018-09-05T14:58:31.715Z,14.87
2018-09-05T15:00:59.848Z,15.47
2018-09-05T15:03:27.873Z,14.97
2018-09-05T15:05:55.891Z,14.37
2018-09-05T15:08:24.174Z,16.27
2018-09-05T15:10:52.265Z,14.97
2018-09-05T15:13:20.336Z,14.97
2018-09-05T15:15:48.463Z,16.43
2018-09-05T15:18:16.516Z,15.33
2018-09-05T15:20:44.538Z,14.77
2018-09-05T15:23:12.661Z,14.47
2018-09-05T15:25:42.065Z,15.07
2018-09-05T15:28:10.062Z,15.23
2018-09-05T15:30:38.162Z,14.97
2018-09-05T15:33:06.703Z,14.23
2018-09-05T15:35:34.996Z,12.77
2018-09-05T15:38:03.279Z,14.10
2018-09-05T15:40:31.496Z,14.60
2018-09-05T15:43:03.250Z,13.43
2018-09-05T15:45:31.776Z,15.10
2018-09-05T15:47:59.892Z,15.17
2018-09-05T15:50:32.655Z,13.87
2018-09-05T15:53:00.687Z,15.47
2018-09-05T15:58:01.511Z,14.70
2018-09-05T16:00:29.776Z,16.33
2018-09-05T16:02:57.955Z,13.77
2018-09-05T16:05:26.671Z,14.73
2018-09-05T16:07:54.767Z,14.67
2018-09-05T16:10:22.880Z,14.40
2018-09-05T16:12:53.192Z,14.87
2018-09-05T16:15:25.372Z,14.93
2018-09-05T16:17:53.316Z,17.07
2018-09-05T16:20:21.432Z,104.37
2018-09-05T16:22:50.100Z,14.60
2018-09-05T16:25:19.305Z,13.97
2018-09-05T16:27:48.248Z,15.97
2018-09-05T16:49:00.684Z,14.93
2018-09-05T16:51:30.001Z,14.13
2018-09-05T16:53:58.694Z,14.93
2018-09-05T17:12:26.896Z,18.33
2018-09-05T17:14:59.918Z,17.63
2018-09-05T17:17:32.055Z,18.33
2018-09-05T17:20:00.996Z,15.07
2018-09-05T17:22:29.699Z,16.53
2018-09-05T17:25:00.171Z,16.13
2018-09-05T17:27:29.303Z,15.87
2018-09-05T17:29:58.061Z,16.23
2018-09-05T17:35:39.575Z,16.33
2018-09-05T17:38:08.703Z,16.00
2018-09-05T17:40:37.453Z,17.20
2018-09-05T17:43:06.757Z,16.03
2018-09-05T17:48:50.459Z,16.30
2018-09-05T17:51:19.092Z,17.13
2018-09-05T17:53:47.826Z,17.50
2018-09-05T17:56:17.535Z,17.47
2018-09-05T17:58:46.183Z,16.93
2018-09-05T18:01:18.669Z,17.90
2018-09-05T18:03:48.285Z,18.87
2018-09-05T18:06:16.882Z,20.60
2018-09-05T18:08:48.628Z,17.20
2018-09-05T18:11:17.291Z,17.03
2018-09-05T18:13:45.565Z,17.40
2018-09-05T18:16:14.787Z,17.13
2018-09-05T18:18:43.487Z,20.67
2018-09-05T18:21:39.322Z,18.47
2018-09-05T18:24:07.768Z,16.80
2018-09-05T18:26:36.021Z,19.23
2018-09-05T18:29:04.336Z,20.03
2018-09-05T18:31:33.160Z,18.50
2018-09-05T18:34:01.632Z,17.10
2018-09-05T18:36:30.201Z,18.53
2018-09-05T18:57:42.662Z,21.13
2018-09-05T19:00:11.433Z,19.47
2018-09-05T19:02:40.264Z,17.93
2018-09-05T19:05:09.844Z,19.53
2018-09-05T19:07:38.972Z,19.63
2018-09-05T19:10:07.660Z,19.93
2018-09-05T19:12:37.126Z,19.57
2018-09-05T19:15:07.727Z,19.97
2018-09-05T19:17:36.645Z,19.97
2018-09-05T19:20:05.566Z,21.80
2018-09-05T19:22:33.621Z,22.27
2018-09-05T19:25:03.016Z,23.97
2018-09-05T19:27:31.255Z,22.37
2018-09-05T19:29:59.439Z,23.00
2018-09-05T19:32:27.523Z,23.43
2018-09-05T19:34:55.629Z,21.67
2018-09-05T19:37:25.263Z,24.47
2018-09-05T19:39:54.789Z,21.87
2018-09-05T19:42:22.927Z,23.60
2018-09-05T19:44:51.277Z,23.70
2018-09-05T19:47:19.391Z,23.50
2018-09-05T19:49:47.551Z,23.17
2018-09-05T19:52:17.289Z,25.43
2018-09-05T19:54:45.548Z,23.67
2018-09-05T19:57:13.620Z,23.13
2018-09-05T19:59:41.887Z,23.10
2018-09-05T20:02:10.009Z,24.37
2018-09-05T20:04:38.109Z,23.77
2018-09-05T20:07:06.392Z,27.17
2018-09-05T20:09:34.588Z,23.47
2018-09-05T20:12:02.855Z,25.23
2018-09-05T20:14:31.045Z,25.30
2018-09-05T20:16:59.190Z,23.73
2018-09-05T20:19:27.615Z,23.30
2018-09-05T20:21:56.208Z,24.77
2018-09-05T20:24:23.990Z,23.43
2018-09-05T20:26:51.763Z,23.93
2018-09-05T20:29:19.491Z,23.73
2018-09-05T20:31:47.194Z,23.53
2018-09-05T20:34:14.930Z,22.93
2018-09-05T20:36:42.629Z,25.87
2018-09-05T20:39:11.388Z,23.40
2018-09-05T20:41:39.355Z,23.13
2018-09-05T20:44:07.085Z,22.03
2018-09-05T20:46:35.222Z,20.83
2018-09-05T20:49:02.946Z,21.73
2018-09-05T20:51:30.672Z,18.93
2018-09-05T20:53:58.645Z,19.60
2018-09-05T20:56:26.442Z,20.70
2018-09-05T20:58:54.257Z,21.43
2018-09-05T21:01:22.113Z,21.03
2018-09-05T21:03:50.115Z,21.90
2018-09-05T21:06:17.798Z,22.40
2018-09-05T21:08:45.555Z,22.67
2018-09-05T21:11:13.386Z,23.67
2018-09-05T21:13:41.126Z,19.17
2018-09-05T21:16:08.909Z,20.93
2018-09-05T21:18:37.169Z,21.73
2018-09-05T21:21:11.126Z,21.80
2018-09-05T21:23:38.769Z,21.60
2018-09-05T21:26:06.479Z,23.53
2018-09-05T21:28:34.225Z,23.87
2018-09-05T21:31:01.957Z,25.60
2018-09-05T21:33:29.604Z,27.33
2018-09-05T21:36:01.318Z,26.87
2018-09-05T21:38:28.993Z,26.77
2018-09-05T21:40:56.710Z,27.27
2018-09-05T21:43:24.377Z,31.03
2018-09-05T21:45:52.158Z,27.00
2018-09-05T21:48:19.894Z,26.20
2018-09-05T21:50:47.505Z,30.43
2018-09-05T21:53:15.193Z,29.03
2018-09-05T21:55:42.934Z,29.73
2018-09-05T21:58:10.681Z,29.43
2018-09-05T22:00:38.397Z,31.27
2018-09-05T22:03:06.077Z,29.23
2018-09-05T22:05:33.809Z,28.53
2018-09-05T22:08:01.814Z,34.60
2018-09-05T22:10:29.534Z,32.00
2018-09-05T22:12:57.181Z,30.17
2018-09-05T22:15:24.912Z,32.30
2018-09-05T22:17:52.573Z,32.43
2018-09-05T22:20:20.217Z,35.33
2018-09-05T22:22:47.845Z,35.93
2018-09-05T22:25:15.582Z,35.90
2018-09-05T22:27:43.270Z,32.73
2018-09-05T22:30:10.919Z,31.80
2018-09-05T22:32:38.635Z,35.03
2018-09-05T22:35:06.377Z,29.57
2018-09-05T22:37:34.059Z,29.87
2018-09-05T22:40:01.759Z,33.93
2018-09-05T22:42:29.405Z,32.93
2018-09-05T22:45:14.534Z,32.50
2018-09-05T22:48:41.729Z,29.93
2018-09-05T22:52:00.177Z,32.90
2018-09-05T22:55:05.043Z,32.10
2018-09-05T22:57:54.917Z,32.77
2018-09-05T23:02:47.761Z,32.83
2018-09-05T23:05:35.974Z,33.33
2018-09-05T23:08:43.122Z,32.50
2018-09-05T23:11:28.206Z,35.00
2018-09-05T23:14:15.414Z,30.67
2018-09-05T23:21:07.407Z,34.80
2018-09-05T23:24:04.817Z,35.00
2018-09-05T23:26:32.546Z,35.83
2018-09-05T23:29:00.263Z,33.43
2018-09-05T23:31:28.075Z,32.40
2018-09-05T23:33:56.006Z,31.97
2018-09-05T23:36:24.087Z,34.50
2018-09-05T23:38:51.828Z,33.53
2018-09-05T23:41:19.650Z,36.03
2018-09-05T23:43:47.322Z,37.73
2018-09-05T23:46:15.000Z,36.13
2018-09-05T23:48:42.699Z,33.27
2018-09-05T23:51:10.394Z,35.33
2018-09-05T23:53:38.067Z,34.53
2018-09-05T23:56:05.778Z,35.37
2018-09-05T23:58:33.497Z,35.47
